Time;durP1;ratioP1;P1;durP2;ratioP2;P2;SDS_P1;SDS_P2;PMS_P1;PMS_P2;Temp;Humidity;BMP_temperature;BMP_pressure;BME280_temperature;BME280_humidity;BME280_pressure;Samples;Min_cycle;Max_cycle;Signal;HPM_P1;HPM_P2
2022/05/12 00:01:49;;;;;;;1.70;1.23;;;17.80;50.10;;;;;;5039320;28;20628;-84
2022/05/12 00:04:17;;;;;;;1.30;1.00;;;17.80;50.60;;;;;;5031573;28;21256;-84
2022/05/12 00:06:44;;;;;;;1.57;1.27;;;17.90;50.20;;;;;;5031232;28;20625;-83
2022/05/12 00:09:11;;;;;;;1.27;1.00;;;17.90;50.60;;;;;;5041570;28;20626;-84
2022/05/12 00:11:39;;;;;;;1.47;1.10;;;17.80;51.20;;;;;;5039788;28;20647;-84
2022/05/12 00:14:08;;;;;;;0.93;0.93;;;18.00;49.90;;;;;;5039851;28;20685;-84
2022/05/12 00:16:37;;;;;;;1.43;1.33;;;18.00;50.70;;;;;;5050979;28;20618;-84
2022/05/12 00:19:04;;;;;;;1.53;1.43;;;18.00;51.00;;;;;;5012437;28;20605;-84
2022/05/12 00:21:35;;;;;;;1.60;1.17;;;18.00;50.00;;;;;;5014952;28;20616;-84
2022/05/12 00:24:03;;;;;;;1.20;1.10;;;18.00;50.30;;;;;;5052700;28;20646;-84
2022/05/12 00:26:33;;;;;;;1.60;1.30;;;18.10;51.20;;;;;;5050533;28;20692;-84
2022/05/12 00:29:05;;;;;;;1.87;1.30;;;18.30;52.20;;;;;;5045655;28;21243;-83
2022/05/12 00:31:34;;;;;;;0.77;0.77;;;18.00;51.30;;;;;;5051304;28;20644;-84
2022/05/12 00:34:02;;;;;;;1.40;1.30;;;17.90;52.10;;;;;;5052328;28;20644;-84
2022/05/12 00:36:29;;;;;;;1.50;1.20;;;18.00;51.50;;;;;;5035834;28;20701;-83
2022/05/12 00:38:58;;;;;;;2.50;1.70;;;18.00;51.80;;;;;;5032974;28;20623;-84
2022/05/12 00:41:25;;;;;;;1.30;1.20;;;18.00;51.50;;;;;;5031545;28;20677;-83
2022/05/12 00:43:55;;;;;;;1.10;0.97;;;18.00;52.50;;;;;;5037417;28;21173;-84
2022/05/12 00:46:25;;;;;;;1.37;1.27;;;17.90;52.00;;;;;;5038974;28;20618;-83
2022/05/12 00:48:53;;;;;;;1.53;1.40;;;18.00;53.50;;;;;;5052604;28;20638;-84
2022/05/12 00:51:25;;;;;;;1.70;1.60;;;17.80;52.60;;;;;;5039608;28;20623;-84
2022/05/12 00:53:55;;;;;;;1.27;1.17;;;17.60;53.30;;;;;;5032713;28;20647;-84
2022/05/12 00:56:25;;;;;;;1.93;1.73;;;17.60;53.70;;;;;;5033932;28;20714;-84
2022/05/12 00:58:56;;;;;;;1.70;1.50;;;17.60;53.60;;;;;;5049103;28;20632;-84
2022/05/12 01:01:22;;;;;;;1.40;1.30;;;17.50;54.50;;;;;;5039780;28;20627;-84
2022/05/12 01:03:50;;;;;;;1.73;1.40;;;17.50;54.90;;;;;;5046228;28;20622;-84
2022/05/12 01:06:17;;;;;;;1.53;1.43;;;17.20;56.20;;;;;;5047107;28;20652;-84
2022/05/12 01:08:45;;;;;;;2.17;1.30;;;17.40;54.80;;;;;;5050558;28;20622;-84
2022/05/12 01:11:15;;;;;;;1.57;1.20;;;17.40;55.20;;;;;;5052906;28;20668;-84
2022/05/12 01:13:49;;;;;;;1.80;1.43;;;15.00;54.20;;;;;;5040778;28;20751;-83
2022/05/12 01:16:36;;;;;;;1.20;1.03;;;17.40;54.70;;;;;;5032640;28;20626;-83
2022/05/12 01:19:03;;;;;;;0.80;0.80;;;17.40;56.00;;;;;;5034276;28;20714;-84
2022/05/12 01:21:32;;;;;;;1.60;1.47;;;17.50;57.20;;;;;;5032791;28;20603;-84
2022/05/12 01:24:01;;;;;;;1.40;1.10;;;17.40;55.20;;;;;;5048694;28;20664;-84
2022/05/12 01:26:28;;;;;;;2.37;1.40;;;17.50;57.30;;;;;;5051924;28;21024;-83
2022/05/12 01:28:56;;;;;;;1.60;1.37;;;17.40;55.50;;;;;;5051198;28;20662;-84
2022/05/12 01:31:24;;;;;;;2.20;1.80;;;17.20;57.40;;;;;;5033723;28;20655;-84
2022/05/12 01:33:52;;;;;;;2.00;1.83;;;17.40;54.40;;;;;;5046846;28;21314;-84
2022/05/12 01:36:20;;;;;;;1.53;1.13;;;17.40;55.30;;;;;;5043918;28;20651;-84
2022/05/12 01:38:49;;;;;;;1.73;1.30;;;17.40;55.80;;;;;;5032250;28;20750;-84
2022/05/12 01:41:18;;;;;;;2.67;1.63;;;17.40;55.80;;;;;;5033998;28;20615;-84
2022/05/12 01:43:45;;;;;;;1.20;0.90;;;17.20;56.20;;;;;;5015125;28;20612;-84
2022/05/12 01:46:12;;;;;;;2.20;1.83;;;17.30;56.20;;;;;;5047145;28;20622;-84
2022/05/12 01:48:40;;;;;;;1.47;1.37;;;17.30;57.20;;;;;;5037857;28;20650;-84
2022/05/12 01:51:07;;;;;;;1.27;1.10;;;17.30;56.50;;;;;;5048882;28;20626;-84
2022/05/12 01:53:35;;;;;;;1.57;1.47;;;17.20;56.70;;;;;;5055315;28;20778;-84
2022/05/12 01:56:02;;;;;;;1.40;1.30;;;17.10;57.30;;;;;;5041724;28;20630;-83
2022/05/12 01:58:31;;;;;;;1.43;1.30;;;16.90;58.40;;;;;;5045801;28;20607;-84
2022/05/12 02:00:58;;;;;;;1.40;1.30;;;16.80;58.00;;;;;;5053025;28;20633;-83
2022/05/12 02:03:25;;;;;;;1.57;1.27;;;16.80;58.50;;;;;;5054591;28;21235;-83
2022/05/12 02:05:52;;;;;;;1.53;1.43;;;16.80;58.40;;;;;;5047911;28;20728;-84
2022/05/12 02:08:20;;;;;;;1.30;1.20;;;16.80;58.30;;;;;;5043641;28;20619;-84
2022/05/12 02:10:52;;;;;;;1.70;1.60;;;16.80;57.60;;;;;;5039120;28;20618;-83
2022/05/12 02:13:20;;;;;;;1.63;1.50;;;16.80;58.30;;;;;;5054481;28;20662;-84
2022/05/12 02:15:50;;;;;;;1.57;1.30;;;16.70;58.20;;;;;;5052663;28;21206;-84
2022/05/12 02:18:20;;;;;;;1.50;1.40;;;16.70;58.80;;;;;;5053684;28;20714;-85
2022/05/12 02:20:46;;;;;;;1.30;1.20;;;16.70;58.80;;;;;;5051154;28;20618;-84
2022/05/12 02:23:13;;;;;;;1.10;0.97;;;16.70;59.10;;;;;;5034244;28;20643;-84
2022/05/12 02:25:40;;;;;;;1.43;1.30;;;16.60;63.50;;;;;;5036230;28;20672;-84
2022/05/12 02:28:08;;;;;;;1.80;1.60;;;16.60;58.90;;;;;;5038641;28;20931;-83
2022/05/12 02:30:35;;;;;;;2.10;2.00;;;16.60;58.80;;;;;;5035962;28;20631;-84
2022/05/12 02:33:04;;;;;;;1.70;1.50;;;16.50;59.30;;;;;;5043486;28;21344;-84
2022/05/12 02:35:31;;;;;;;1.43;1.33;;;16.50;59.60;;;;;;5034644;28;20639;-84
2022/05/12 02:37:58;;;;;;;2.07;1.63;;;16.60;64.90;;;;;;5048340;28;20737;-84
2022/05/12 02:40:28;;;;;;;1.73;1.63;;;16.40;62.70;;;;;;5035070;28;20944;-83
2022/05/12 02:42:56;;;;;;;2.87;1.50;;;16.40;61.30;;;;;;5035242;28;20659;-84
2022/05/12 02:45:22;;;;;;;1.20;1.10;;;16.40;61.40;;;;;;5035294;28;20976;-84
2022/05/12 02:47:49;;;;;;;2.83;1.60;;;16.30;62.80;;;;;;5044429;28;20730;-84
2022/05/12 02:50:18;;;;;;;1.90;1.80;;;16.30;62.80;;;;;;5035315;28;20980;-84
2022/05/12 02:52:45;;;;;;;1.17;1.10;;;16.20;65.50;;;;;;5050513;28;20634;-84
2022/05/12 02:55:13;;;;;;;1.30;1.13;;;16.20;65.10;;;;;;5047690;28;20635;-84
2022/05/12 02:57:40;;;;;;;1.53;1.43;;;16.10;64.90;;;;;;5044402;28;20641;-84
2022/05/12 03:00:12;;;;;;;1.70;1.60;;;15.90;64.50;;;;;;5054639;28;20721;-84
2022/05/12 03:02:39;;;;;;;1.40;1.30;;;16.10;64.10;;;;;;5046141;28;20646;-84
2022/05/12 03:05:07;;;;;;;2.00;1.80;;;16.00;67.50;;;;;;5049938;28;20631;-84
2022/05/12 03:07:35;;;;;;;4.53;2.00;;;16.00;65.60;;;;;;5036082;28;20632;-83
2022/05/12 03:10:02;;;;;;;3.77;1.67;;;16.00;65.60;;;;;;5034244;28;20623;-83
2022/05/12 03:12:30;;;;;;;2.27;2.07;;;15.90;66.40;;;;;;5046570;28;20669;-83
2022/05/12 03:14:57;;;;;;;2.10;1.27;;;15.90;67.00;;;;;;5049721;28;20638;-83
2022/05/12 03:17:24;;;;;;;1.60;1.50;;;15.80;67.40;;;;;;5033174;28;20651;-84
2022/05/12 03:19:50;;;;;;;3.80;2.00;;;15.80;67.20;;;;;;5036938;28;20745;-84
2022/05/12 03:22:17;;;;;;;1.53;1.37;;;15.80;68.60;;;;;;5053496;28;20676;-83
2022/05/12 03:24:45;;;;;;;1.97;1.80;;;15.80;67.80;;;;;;5050670;28;21265;-84
2022/05/12 03:27:13;;;;;;;1.67;1.57;;;15.70;68.60;;;;;;5042246;28;20672;-84
2022/05/12 03:29:40;;;;;;;1.60;1.50;;;15.80;69.40;;;;;;5052438;28;20652;-83
2022/05/12 03:32:12;;;;;;;3.77;1.70;;;15.90;72.40;;;;;;5033249;28;20619;-84
2022/05/12 03:34:39;;;;;;;2.20;2.10;;;15.70;70.00;;;;;;5051944;28;20630;-83
2022/05/12 03:37:07;;;;;;;3.23;1.53;;;15.90;74.70;;;;;;5052519;28;20622;-83
2022/05/12 03:39:34;;;;;;;2.00;1.70;;;15.60;70.90;;;;;;5035714;28;20636;-83
2022/05/12 03:42:04;;;;;;;1.47;1.37;;;15.70;71.40;;;;;;5033294;28;20631;-84
2022/05/12 03:44:49;;;;;;;1.50;1.40;;;15.60;72.10;;;;;;5032772;28;20666;-84
2022/05/12 03:47:19;;;;;;;2.27;1.33;;;15.60;72.40;;;;;;5035409;28;20638;-84
2022/05/12 03:49:46;;;;;;;1.70;1.60;;;15.60;72.60;;;;;;5042249;28;20631;-84
2022/05/12 03:52:13;;;;;;;3.17;2.17;;;15.60;73.70;;;;;;5051304;28;21257;-84
2022/05/12 03:54:41;;;;;;;1.60;1.50;;;15.60;73.60;;;;;;5048040;28;20635;-84
2022/05/12 03:57:09;;;;;;;1.80;1.70;;;15.60;76.80;;;;;;5045045;28;20662;-83
2022/05/12 03:59:39;;;;;;;1.80;1.70;;;15.60;74.60;;;;;;5033261;28;20735;-83
2022/05/12 04:02:06;;;;;;;1.80;1.57;;;15.60;74.70;;;;;;5034452;28;20702;-84
2022/05/12 04:04:33;;;;;;;2.10;1.80;;;15.50;78.10;;;;;;5051059;28;20694;-83
2022/05/12 04:07:00;;;;;;;2.53;1.43;;;15.50;75.30;;;;;;5033272;28;20730;-83
2022/05/12 04:09:27;;;;;;;1.33;1.23;;;15.50;75.60;;;;;;5034328;28;20643;-84
2022/05/12 04:11:54;;;;;;;1.23;1.13;;;15.50;75.20;;;;;;5033144;28;20619;-84
2022/05/12 04:14:23;;;;;;;1.53;1.40;;;15.50;75.50;;;;;;5051306;28;20721;-84
2022/05/12 04:16:49;;;;;;;1.20;1.10;;;15.40;78.10;;;;;;5051469;28;20649;-83
2022/05/12 04:19:17;;;;;;;2.63;1.80;;;15.40;76.30;;;;;;5033713;28;21185;-84
2022/05/12 04:21:44;;;;;;;1.23;1.13;;;15.50;76.80;;;;;;5034636;28;20635;-84
2022/05/12 04:24:11;;;;;;;2.10;2.00;;;15.50;76.60;;;;;;5032905;28;20758;-84
2022/05/12 04:26:40;;;;;;;1.67;1.57;;;15.40;77.00;;;;;;5036829;28;20715;-84
2022/05/12 04:29:08;;;;;;;1.53;1.33;;;15.50;77.50;;;;;;5054718;28;20626;-83
2022/05/12 04:31:36;;;;;;;2.73;1.60;;;15.50;77.90;;;;;;5035931;28;20635;-83
2022/05/12 04:36:47;;;;;;;4.10;1.70;;;15.50;82.10;;;;;;5045686;28;20632;-85
2022/05/12 04:39:14;;;;;;;1.37;1.27;;;16.00;80.20;;;;;;5033587;28;21173;-84
2022/05/12 04:41:41;;;;;;;1.60;1.23;;;15.60;80.10;;;;;;5034355;28;20650;-84
2022/05/12 04:44:08;;;;;;;1.30;1.20;;;15.60;79.40;;;;;;5051930;28;20761;-84
2022/05/12 04:46:37;;;;;;;1.43;1.33;;;15.80;79.50;;;;;;5053569;28;20607;-84
2022/05/12 04:49:05;;;;;;;3.10;1.20;;;15.90;82.60;;;;;;5034468;28;20627;-84
2022/05/12 04:51:32;;;;;;;1.73;1.20;;;15.70;81.30;;;;;;5034752;28;20646;-84
2022/05/12 04:53:59;;;;;;;1.30;1.20;;;15.80;81.60;;;;;;5033534;28;20631;-84
2022/05/12 04:56:26;;;;;;;1.27;0.97;;;15.90;82.10;;;;;;5032811;28;20651;-85
2022/05/12 04:58:53;;;;;;;1.67;1.23;;;15.90;82.60;;;;;;5046431;28;20637;-85
2022/05/12 05:01:20;;;;;;;2.00;1.33;;;15.90;81.90;;;;;;5053336;28;20626;-84
2022/05/12 05:03:48;;;;;;;1.80;1.17;;;16.00;82.00;;;;;;5037673;28;20721;-84
2022/05/12 05:06:15;;;;;;;1.13;1.03;;;16.10;82.70;;;;;;5032673;28;20689;-84
2022/05/12 05:08:42;;;;;;;1.17;1.07;;;16.20;83.50;;;;;;5033026;28;20750;-85
2022/05/12 05:11:09;;;;;;;0.70;0.70;;;16.30;83.10;;;;;;5033695;28;20603;-85
2022/05/12 05:13:36;;;;;;;0.93;0.90;;;16.40;82.80;;;;;;5033259;28;20639;-85
2022/05/12 05:16:03;;;;;;;0.93;0.93;;;16.50;82.30;;;;;;5033558;28;20643;-84
2022/05/12 05:18:30;;;;;;;1.20;0.83;;;16.40;83.50;;;;;;5036239;28;20624;-85
2022/05/12 05:20:58;;;;;;;1.10;0.97;;;16.70;81.40;;;;;;5034491;28;20627;-85
2022/05/12 05:23:25;;;;;;;0.80;0.80;;;16.80;80.70;;;;;;5033590;28;20717;-85
2022/05/12 05:25:52;;;;;;;2.17;1.50;;;16.90;80.20;;;;;;5033735;28;20754;-85
2022/05/12 05:28:20;;;;;;;1.30;0.70;;;17.00;79.80;;;;;;5035074;28;20731;-85
2022/05/12 05:30:47;;;;;;;1.07;1.00;;;17.10;80.00;;;;;;5031323;28;20643;-83
2022/05/12 05:33:14;;;;;;;0.87;0.60;;;17.00;80.40;;;;;;5042489;28;20660;-84
2022/05/12 05:35:41;;;;;;;1.13;0.90;;;17.20;80.30;;;;;;5052875;28;20595;-86
2022/05/12 05:38:10;;;;;;;1.23;1.00;;;17.30;80.20;;;;;;5049095;28;20673;-85
2022/05/12 05:40:38;;;;;;;0.80;0.70;;;17.40;79.50;;;;;;5031049;28;20654;-84
2022/05/12 05:43:05;;;;;;;1.03;0.90;;;17.50;79.50;;;;;;5029728;28;21043;-85
2022/05/12 05:45:33;;;;;;;0.80;0.80;;;17.60;78.30;;;;;;5029663;28;20619;-85
2022/05/12 05:48:04;;;;;;;1.73;1.10;;;17.70;77.50;;;;;;5036368;28;20655;-84
2022/05/12 05:53:23;;;;;;;0.93;0.67;;;17.70;77.60;;;;;;5031923;28;20631;-86
2022/05/12 05:53:25;;;;;;;0.90;0.80;;;17.70;77.10;;;;;;5034035;28;21185;-85
2022/05/12 05:55:53;;;;;;;1.70;1.10;;;17.70;77.70;;;;;;5031799;28;20730;-85
2022/05/12 05:58:20;;;;;;;0.97;0.90;;;17.80;77.40;;;;;;5032449;28;20632;-84
2022/05/12 06:00:47;;;;;;;1.20;1.10;;;17.80;77.00;;;;;;5031956;28;20631;-84
2022/05/12 06:03:14;;;;;;;0.53;0.53;;;17.90;77.80;;;;;;5031051;28;20773;-84
2022/05/12 06:05:42;;;;;;;0.77;0.77;;;17.90;77.20;;;;;;5034850;28;20625;-84
2022/05/12 06:08:11;;;;;;;1.07;0.93;;;17.90;76.80;;;;;;5041854;28;20627;-85
2022/05/12 06:10:39;;;;;;;1.33;1.23;;;17.90;76.90;;;;;;5030614;28;20630;-84
2022/05/12 06:13:08;;;;;;;0.60;0.60;;;18.00;77.10;;;;;;5036426;28;20622;-85
2022/05/12 06:15:35;;;;;;;1.13;1.07;;;18.00;76.40;;;;;;5041662;28;20623;-85
2022/05/12 06:18:06;;;;;;;1.20;0.97;;;18.00;76.40;;;;;;5031072;28;20726;-86
2022/05/12 06:20:33;;;;;;;1.50;1.40;;;18.10;76.20;;;;;;5030210;28;21145;-85
2022/05/12 06:23:00;;;;;;;0.70;0.70;;;20.00;79.10;;;;;;5029315;28;20633;-85
2022/05/12 06:25:27;;;;;;;0.53;0.53;;;18.20;76.70;;;;;;5029690;28;21237;-85
2022/05/12 06:27:56;;;;;;;1.07;0.90;;;18.30;77.10;;;;;;5047816;28;20633;-85
2022/05/12 06:30:22;;;;;;;0.80;0.73;;;18.40;76.90;;;;;;5032567;28;20675;-83
2022/05/12 06:32:51;;;;;;;0.80;0.80;;;18.50;76.70;;;;;;5044091;28;20658;-85
2022/05/12 06:35:20;;;;;;;1.50;0.93;;;18.50;76.50;;;;;;5032788;28;20701;-84
2022/05/12 06:37:47;;;;;;;1.03;0.93;;;18.70;76.40;;;;;;5034346;28;20634;-84
2022/05/12 06:40:14;;;;;;;0.93;0.83;;;18.80;76.70;;;;;;5033514;28;20663;-85
2022/05/12 06:42:42;;;;;;;1.20;0.97;;;18.90;75.80;;;;;;5035810;28;20663;-84
2022/05/12 06:45:11;;;;;;;1.27;0.80;;;18.90;75.00;;;;;;5032475;28;20667;-84
2022/05/12 06:47:38;;;;;;;1.00;0.70;;;18.90;75.00;;;;;;5047549;28;20618;-85
2022/05/12 06:50:06;;;;;;;1.70;1.60;;;18.70;76.00;;;;;;5036122;28;20619;-85
2022/05/12 06:52:33;;;;;;;1.00;0.80;;;18.90;75.40;;;;;;5033494;28;20627;-85
2022/05/12 06:55:00;;;;;;;1.13;1.03;;;18.80;75.90;;;;;;5034405;28;21185;-84
2022/05/12 06:57:28;;;;;;;1.10;0.80;;;18.90;75.40;;;;;;5033623;28;20654;-84
2022/05/12 06:59:55;;;;;;;0.80;0.80;;;18.90;77.10;;;;;;5033303;28;20639;-84
2022/05/12 07:02:25;;;;;;;0.87;0.73;;;18.90;75.90;;;;;;5034413;28;20659;-84
2022/05/12 07:04:53;;;;;;;0.90;0.90;;;18.90;75.70;;;;;;5033128;28;20674;-85
2022/05/12 07:07:21;;;;;;;0.80;0.80;;;19.00;75.60;;;;;;5033509;28;20750;-85
2022/05/12 07:09:52;;;;;;;0.93;0.73;;;19.10;75.90;;;;;;5034429;28;20619;-84
2022/05/12 07:12:19;;;;;;;1.07;0.83;;;19.00;76.30;;;;;;5035239;28;20624;-85
2022/05/12 07:14:46;;;;;;;1.13;1.03;;;19.10;76.30;;;;;;5034873;28;20684;-85
2022/05/12 07:17:13;;;;;;;1.40;0.90;;;19.00;75.90;;;;;;5032701;28;20742;-85
2022/05/12 07:19:41;;;;;;;1.07;0.80;;;19.10;76.90;;;;;;5030983;28;20738;-85
2022/05/12 07:27:38;;;;;;;1.03;0.77;;;18.80;77.50;;;;;;5046089;28;21239;-84
2022/05/12 07:30:07;;;;;;;0.80;0.80;;;19.10;76.20;;;;;;5033079;28;20639;-85
2022/05/12 07:32:37;;;;;;;0.83;0.83;;;19.30;76.40;;;;;;5032621;28;21228;-85
2022/05/12 07:35:06;;;;;;;0.83;0.70;;;19.50;76.30;;;;;;5032666;28;20663;-85
2022/05/12 07:37:34;;;;;;;1.07;0.70;;;19.70;74.20;;;;;;5037438;28;20673;-85
2022/05/12 07:40:01;;;;;;;0.80;0.70;;;19.70;74.80;;;;;;5035557;28;20699;-84
2022/05/12 07:42:29;;;;;;;0.97;0.87;;;19.80;74.10;;;;;;5035750;28;20658;-84
2022/05/12 07:44:56;;;;;;;1.40;0.90;;;19.80;75.00;;;;;;5040760;28;20721;-84
2022/05/12 07:47:23;;;;;;;1.23;1.13;;;19.90;75.20;;;;;;5032672;28;20627;-84
2022/05/12 07:49:50;;;;;;;0.83;0.70;;;19.80;75.30;;;;;;5032566;28;20626;-84
2022/05/12 07:52:18;;;;;;;0.97;0.60;;;19.90;74.90;;;;;;5033287;28;20662;-84
2022/05/12 07:54:45;;;;;;;2.70;1.10;;;19.70;78.80;;;;;;5032214;28;20645;-84
2022/05/12 07:57:12;;;;;;;0.73;0.60;;;19.60;74.60;;;;;;5033556;28;21343;-85
2022/05/12 07:59:39;;;;;;;0.60;0.60;;;19.80;76.90;;;;;;5038540;28;20662;-84
2022/05/12 08:02:06;;;;;;;0.93;0.77;;;19.80;74.40;;;;;;5039209;28;20684;-85
2022/05/12 08:04:34;;;;;;;1.10;1.00;;;19.90;74.70;;;;;;5035300;28;20651;-85
2022/05/12 08:07:01;;;;;;;1.10;0.87;;;19.90;75.00;;;;;;5031765;28;21307;-84
2022/05/12 08:09:30;;;;;;;0.80;0.80;;;19.90;73.10;;;;;;5030766;28;20713;-85
2022/05/12 08:11:57;;;;;;;0.60;0.60;;;20.00;73.20;;;;;;5031480;28;21241;-86
2022/05/12 08:14:23;;;;;;;0.90;0.90;;;20.00;73.70;;;;;;5036404;28;20635;-83
2022/05/12 08:16:51;;;;;;;0.93;0.93;;;20.10;73.40;;;;;;5035343;28;20643;-85
2022/05/12 08:19:18;;;;;;;0.93;0.80;;;20.20;74.00;;;;;;5033915;28;20638;-84
2022/05/12 08:21:45;;;;;;;0.80;0.73;;;20.20;73.30;;;;;;5031166;28;20630;-84
2022/05/12 08:24:12;;;;;;;2.30;1.33;;;20.20;73.20;;;;;;5031081;28;20647;-85
2022/05/12 08:26:42;;;;;;;1.00;0.83;;;20.30;75.10;;;;;;5049643;28;20614;-84
2022/05/12 08:29:09;;;;;;;0.97;0.87;;;20.30;73.50;;;;;;5031020;28;20628;-84
2022/05/12 08:31:36;;;;;;;2.20;0.90;;;20.30;72.40;;;;;;5035302;28;20642;-86
2022/05/12 08:34:03;;;;;;;1.27;1.17;;;20.50;72.90;;;;;;5031531;28;20656;-84
2022/05/12 08:36:30;;;;;;;0.90;0.80;;;20.50;71.80;;;;;;5031464;28;20713;-86
2022/05/12 08:38:57;;;;;;;0.80;0.80;;;20.50;72.60;;;;;;5033018;28;20665;-84
2022/05/12 08:41:37;;;;;;;0.60;0.60;;;20.60;73.10;;;;;;5029904;28;20754;-85
2022/05/12 08:44:09;;;;;;;0.97;0.97;;;20.70;72.90;;;;;;5037673;28;20675;-84
2022/05/12 08:46:42;;;;;;;0.80;0.80;;;20.60;71.50;;;;;;5033315;28;20634;-85
2022/05/12 08:49:20;;;;;;;1.73;0.87;;;20.60;72.90;;;;;;5038288;28;20631;-85
2022/05/12 08:51:51;;;;;;;0.77;0.77;;;20.70;73.60;;;;;;5030221;28;20745;-84
2022/05/12 08:54:21;;;;;;;1.40;1.03;;;20.50;73.50;;;;;;5045689;28;20678;-86
2022/05/12 08:56:49;;;;;;;3.23;0.80;;;20.50;73.30;;;;;;5046073;28;20649;-86
2022/05/12 08:59:18;;;;;;;1.10;0.97;;;20.70;75.00;;;;;;5041428;28;21237;-85
2022/05/12 09:01:55;;;;;;;1.70;1.27;;;20.80;72.20;;;;;;5029853;28;20628;-85
2022/05/12 09:04:45;;;;;;;1.43;1.33;;;20.80;72.80;;;;;;5031929;28;20687;-85
2022/05/12 09:07:18;;;;;;;1.30;1.20;;;20.90;73.00;;;;;;5045928;28;20647;-84
2022/05/12 09:09:55;;;;;;;0.70;0.70;;;20.90;77.00;;;;;;5035985;28;20705;-84
2022/05/12 09:12:32;;;;;;;1.17;1.17;;;21.10;73.50;;;;;;5037476;28;20657;-84
2022/05/12 09:15:05;;;;;;;1.37;1.27;;;21.20;71.10;;;;;;5048971;28;20727;-85
2022/05/12 09:17:39;;;;;;;1.87;0.97;;;21.30;71.30;;;;;;5047176;28;20642;-85
2022/05/12 09:20:09;;;;;;;1.30;1.20;;;21.40;74.50;;;;;;5023546;28;20624;-84
2022/05/12 09:22:37;;;;;;;1.37;1.27;;;21.70;69.20;;;;;;5038160;28;21019;-84
2022/05/12 09:25:06;;;;;;;1.10;1.00;;;21.60;69.60;;;;;;5009259;28;20757;-85
2022/05/12 09:27:36;;;;;;;1.00;0.73;;;21.60;70.10;;;;;;5045989;28;20626;-85
2022/05/12 09:30:06;;;;;;;1.27;0.93;;;21.60;70.90;;;;;;5033288;28;20643;-85
2022/05/12 09:32:35;;;;;;;2.03;1.40;;;21.70;70.60;;;;;;5028419;28;20634;-85
2022/05/12 09:35:22;;;;;;;0.70;0.70;;;21.90;70.10;;;;;;5045109;28;21233;-85
2022/05/12 09:37:50;;;;;;;1.60;1.47;;;21.60;69.30;;;;;;5050104;28;20643;-85
2022/05/12 09:40:35;;;;;;;1.30;1.20;;;21.60;70.20;;;;;;5030364;28;20651;-86
2022/05/12 09:43:17;;;;;;;1.90;1.40;;;21.70;69.80;;;;;;5029463;28;20646;-85
2022/05/12 09:46:01;;;;;;;1.77;1.30;;;21.80;69.70;;;;;;5028475;28;20698;-86
2022/05/12 09:48:29;;;;;;;1.10;1.00;;;22.30;73.70;;;;;;5042288;28;21189;-86
2022/05/12 09:51:22;;;;;;;1.63;1.30;;;22.00;69.60;;;;;;5028159;28;20623;-86
2022/05/12 09:53:51;;;;;;;1.37;1.17;;;22.20;68.90;;;;;;5028386;28;20713;-86
2022/05/12 09:56:32;;;;;;;1.17;1.07;;;22.20;66.50;;;;;;5027204;28;20631;-85
2022/05/12 09:59:07;;;;;;;1.60;1.50;;;22.00;78.80;;;;;;5029248;28;20665;-85
2022/05/12 10:01:48;;;;;;;1.20;1.10;;;22.70;72.10;;;;;;5048357;28;20728;-84
2022/05/12 10:09:57;;;;;;;1.50;1.27;;;23.10;67.00;;;;;;5036283;28;20734;-83
2022/05/12 10:12:30;;;;;;;1.50;1.40;;;23.60;67.40;;;;;;5032424;28;21367;-84
2022/05/12 10:15:01;;;;;;;1.63;1.53;;;23.90;64.20;;;;;;5032242;28;20627;-84
2022/05/12 10:17:38;;;;;;;1.57;1.47;;;23.80;62.40;;;;;;5043144;28;20683;-85
2022/05/12 10:20:09;;;;;;;1.60;1.50;;;23.50;63.50;;;;;;5037999;28;21145;-84
2022/05/12 10:22:43;;;;;;;2.20;1.67;;;23.50;62.50;;;;;;5012180;28;20624;-85
2022/05/12 10:25:22;;;;;;;1.87;1.77;;;23.20;63.40;;;;;;5008942;28;20873;-85
2022/05/12 10:27:56;;;;;;;2.17;1.60;;;22.80;62.50;;;;;;5017389;28;20717;-84
2022/05/12 10:30:35;;;;;;;3.10;1.57;;;22.80;65.00;;;;;;5032825;28;20639;-83
2022/05/12 10:33:13;;;;;;;2.80;1.73;;;22.80;74.70;;;;;;5030731;28;20638;-84
2022/05/12 10:35:46;;;;;;;2.27;1.73;;;22.90;64.80;;;;;;5030593;28;20626;-85
2022/05/12 10:38:23;;;;;;;1.53;1.43;;;22.70;66.40;;;;;;5031311;28;20660;-84
2022/05/12 10:40:57;;;;;;;1.87;1.70;;;22.60;66.50;;;;;;5032210;28;20619;-84
2022/05/12 10:43:48;;;;;;;1.07;1.00;;;22.50;65.90;;;;;;5030864;28;20746;-85
2022/05/12 10:46:22;;;;;;;1.47;1.37;;;22.40;66.90;;;;;;5011420;28;20766;-85
2022/05/12 10:48:59;;;;;;;1.73;1.63;;;22.40;66.20;;;;;;5014965;28;20745;-85
2022/05/12 10:51:38;;;;;;;1.40;1.30;;;22.30;65.20;;;;;;5012044;28;20718;-85
2022/05/12 10:54:20;;;;;;;1.30;1.20;;;22.20;64.50;;;;;;5012977;28;20655;-85
2022/05/12 10:57:00;;;;;;;1.50;1.40;;;22.40;65.30;;;;;;5012039;28;20615;-86
2022/05/12 10:59:39;;;;;;;1.30;1.20;;;22.60;65.30;;;;;;5021483;28;20616;-84
2022/05/12 11:02:14;;;;;;;1.63;1.50;;;22.80;64.00;;;;;;5023123;28;20633;-85
2022/05/12 11:04:46;;;;;;;1.67;1.57;;;23.30;67.30;;;;;;5031182;28;20718;-85
2022/05/12 11:07:20;;;;;;;1.70;1.60;;;23.70;64.50;;;;;;5028577;28;20662;-84
2022/05/12 11:09:51;;;;;;;1.60;1.43;;;23.70;64.60;;;;;;5031063;28;20672;-86
2022/05/12 11:12:24;;;;;;;1.43;1.33;;;23.60;59.70;;;;;;5031279;28;20710;-85
2022/05/12 11:14:57;;;;;;;1.93;1.70;;;23.50;62.30;;;;;;5030999;28;20625;-85
2022/05/12 11:17:33;;;;;;;1.17;1.10;;;23.60;72.60;;;;;;5034419;28;20647;-85
2022/05/12 11:20:09;;;;;;;1.73;1.63;;;23.20;65.00;;;;;;5025638;28;20681;-85
2022/05/12 11:22:44;;;;;;;1.70;1.60;;;23.20;64.00;;;;;;5036823;28;20684;-85
2022/05/12 11:25:16;;;;;;;1.80;1.70;;;22.90;62.70;;;;;;5033526;28;20661;-85
2022/05/12 11:29:41;;;;;;;1.10;1.03;;;23.10;64.70;;;;;;5035437;28;20724;-85
2022/05/12 11:30:46;;;;;;;1.80;1.70;;;22.90;63.10;;;;;;5030728;28;20637;-85
2022/05/12 11:33:23;;;;;;;5.00;1.93;;;22.70;63.00;;;;;;5032023;28;20646;-85
2022/05/12 11:35:54;;;;;;;1.63;1.53;;;22.90;68.60;;;;;;5027932;28;20619;-86
2022/05/12 11:39:01;;;;;;;1.23;1.13;;;23.00;66.30;;;;;;5042480;28;20626;-85
2022/05/12 11:41:42;;;;;;;2.03;1.70;;;22.90;64.00;;;;;;5043383;28;20647;-87
2022/05/12 11:44:27;;;;;;;0.97;0.97;;;23.30;68.70;;;;;;5034246;28;20630;-85
2022/05/12 11:47:18;;;;;;;1.90;1.53;;;23.30;64.60;;;;;;5031683;28;20654;-85
2022/05/12 11:50:01;;;;;;;2.73;1.30;;;23.40;63.10;;;;;;5032476;28;20705;-84
2022/05/12 11:52:43;;;;;;;1.83;1.00;;;23.50;62.90;;;;;;5036236;28;20661;-85
2022/05/12 11:55:24;;;;;;;1.20;1.10;;;24.20;62.50;;;;;;5038474;28;20615;-85
2022/05/12 11:58:03;;;;;;;1.20;1.10;;;25.90;64.10;;;;;;5034943;28;20737;-86
2022/05/12 12:00:57;;;;;;;1.70;1.60;;;26.70;58.70;;;;;;5034435;28;20735;-85
2022/05/12 12:03:49;;;;;;;1.80;1.70;;;26.70;58.60;;;;;;5034129;28;20622;-85
2022/05/12 12:06:42;;;;;;;1.90;1.80;;;27.00;56.90;;;;;;5028915;28;20754;-85
2022/05/12 12:09:51;;;;;;;1.73;1.63;;;26.70;57.90;;;;;;5027657;28;20681;-86
2022/05/12 12:12:53;;;;;;;2.70;1.87;;;26.70;58.20;;;;;;5027456;28;20704;-85
2022/05/12 12:16:04;;;;;;;2.00;1.90;;;28.70;59.80;;;;;;5001303;28;20670;-86
2022/05/12 12:18:50;;;;;;;1.63;1.53;;;29.00;54.90;;;;;;5033957;28;20623;-86
2022/05/12 12:21:44;;;;;;;2.20;1.90;;;30.20;52.20;;;;;;5030682;28;20627;-86
2022/05/12 12:24:39;;;;;;;2.47;2.27;;;30.40;52.40;;;;;;5030694;28;20628;-85
2022/05/12 12:27:28;;;;;;;1.70;1.60;;;30.60;49.90;;;;;;5030870;28;20675;-85
2022/05/12 12:30:15;;;;;;;1.83;1.70;;;30.50;49.40;;;;;;5027867;28;20636;-85
2022/05/12 12:32:43;;;;;;;1.70;1.60;;;31.00;51.00;;;;;;5031967;28;20738;-86
2022/05/12 12:35:15;;;;;;;2.17;1.73;;;30.80;49.70;;;;;;5038336;28;20709;-87
2022/05/12 12:37:45;;;;;;;2.07;1.90;;;30.40;52.10;;;;;;5036257;28;20654;-85
2022/05/12 12:40:52;;;;;;;2.27;2.10;;;30.30;50.90;;;;;;5029851;28;20616;-86
2022/05/12 12:43:25;;;;;;;1.87;1.77;;;30.20;51.70;;;;;;5025878;28;20697;-84
2022/05/12 12:45:54;;;;;;;2.20;2.10;;;29.30;50.90;;;;;;5033658;28;20654;-84
2022/05/12 12:48:29;;;;;;;2.60;2.33;;;28.60;51.80;;;;;;5028944;28;20630;-84
2022/05/12 12:50:56;;;;;;;1.93;1.63;;;28.70;52.50;;;;;;5033737;28;20623;-85
2022/05/12 12:56:35;;;;;;;2.37;2.17;;;27.70;51.30;;;;;;5035632;28;20630;-84
2022/05/12 12:59:06;;;;;;;1.70;1.60;;;27.70;51.70;;;;;;5032166;28;20623;-83
2022/05/12 13:01:50;;;;;;;2.80;2.60;;;28.30;53.00;;;;;;5032952;28;20685;-85
2022/05/12 13:04:23;;;;;;;1.70;1.60;;;28.10;50.80;;;;;;5029815;28;21004;-85
2022/05/12 13:06:52;;;;;;;1.77;1.67;;;27.00;51.80;;;;;;5030870;28;21037;-84
2022/05/12 13:09:25;;;;;;;1.97;1.87;;;26.20;57.10;;;;;;5027180;28;20696;-85
2022/05/12 13:12:08;;;;;;;2.30;2.10;;;26.50;55.00;;;;;;5034667;28;20724;-84
2022/05/12 13:14:37;;;;;;;2.47;2.27;;;25.50;52.90;;;;;;5026211;28;21213;-84
2022/05/12 13:17:06;;;;;;;2.60;1.73;;;25.50;53.30;;;;;;5032012;28;20622;-85
2022/05/12 13:19:39;;;;;;;1.67;1.43;;;25.40;54.00;;;;;;5026385;28;20721;-84
2022/05/12 13:22:08;;;;;;;2.40;2.17;;;24.60;56.40;;;;;;5032321;28;20633;-84
2022/05/12 13:24:38;;;;;;;2.20;2.00;;;24.50;59.60;;;;;;5032383;28;20681;-83
2022/05/12 13:27:08;;;;;;;1.40;1.30;;;24.50;57.90;;;;;;5030679;28;20748;-84